Time;durP1;ratioP1;P1;durP2;ratioP2;P2;SDS_P1;SDS_P2;PMS_P1;PMS_P2;Temp;Humidity;BMP_temperature;BMP_pressure;BME280_temperature;BME280_humidity;BME280_pressure;Samples;Min_cycle;Max_cycle;Signal;HPM_P1;HPM_P2
2021/07/25 00:02:37;;;;;;;49.80;36.53;;;19.90;99.90;;;;;;6236716;23;20386;-93
2021/07/25 00:05:06;;;;;;;48.30;36.53;;;18.20;99.90;;;;;;6239472;23;20373;-93
2021/07/25 00:07:43;;;;;;;46.57;36.20;;;18.40;99.90;;;;;;6238131;23;20433;-93
2021/07/25 00:10:24;;;;;;;46.97;37.37;;;17.80;99.90;;;;;;6241326;23;20385;-92
2021/07/25 00:13:51;;;;;;;50.43;36.90;;;18.20;99.90;;;;;;6268417;23;20429;-91
2021/07/25 00:22:14;;;;;;;43.20;36.67;;;18.20;99.90;;;;;;6261659;22;20490;-93
2021/07/25 00:25:08;;;;;;;52.30;37.27;;;16.70;99.90;;;;;;6243024;23;20382;-94
2021/07/25 00:27:40;;;;;;;47.17;36.40;;;20.10;99.90;;;;;;6241908;23;20444;-93
2021/07/25 00:30:18;;;;;;;40.17;32.33;;;17.70;99.90;;;;;;6240955;23;20389;-93
2021/07/25 00:32:47;;;;;;;35.77;31.17;;;18.10;99.90;;;;;;6236046;23;20429;-92
2021/07/25 00:35:50;;;;;;;40.87;32.87;;;19.80;99.90;;;;;;6212855;23;20420;-93
2021/07/25 00:38:16;;;;;;;41.50;33.40;;;19.50;99.90;;;;;;6241984;23;20373;-93
2021/07/25 00:41:01;;;;;;;42.03;32.97;;;19.40;99.90;;;;;;6244073;23;20408;-94
2021/07/25 00:43:29;;;;;;;37.00;33.00;;;18.10;99.90;;;;;;6224480;23;20369;-94
2021/07/25 00:45:59;;;;;;;41.47;32.70;;;17.40;99.90;;;;;;6245090;22;20393;-93
2021/07/25 00:48:31;;;;;;;42.63;36.60;;;19.20;99.90;;;;;;6245934;23;20374;-92
2021/07/25 00:51:02;;;;;;;40.97;32.87;;;18.20;99.90;;;;;;6244769;23;20394;-90
2021/07/25 00:53:46;;;;;;;38.10;32.03;;;18.40;99.90;;;;;;6245999;22;20433;-93
2021/07/25 00:56:35;;;;;;;41.90;33.63;;;19.50;99.90;;;;;;6246374;22;20381;-92
2021/07/25 00:59:07;;;;;;;41.17;33.07;;;18.90;99.90;;;;;;6220612;23;20393;-94
2021/07/25 01:01:34;;;;;;;41.23;33.77;;;19.50;99.90;;;;;;6273243;23;20361;-93
2021/07/25 01:04:21;;;;;;;44.73;33.70;;;18.10;99.90;;;;;;6244362;23;20381;-93
2021/07/25 01:07:08;;;;;;;39.47;32.33;;;19.30;99.90;;;;;;6243090;23;20401;-93
2021/07/25 01:10:04;;;;;;;46.57;35.03;;;19.50;99.90;;;;;;6245226;23;20382;-93
2021/07/25 01:12:51;;;;;;;46.40;34.67;;;18.60;99.90;;;;;;6245531;23;20457;-92
2021/07/25 01:15:20;;;;;;;40.90;32.40;;;20.20;99.90;;;;;;6242741;22;20389;-93
2021/07/25 01:17:48;;;;;;;38.60;33.20;;;17.20;99.90;;;;;;6240903;23;20388;-94
2021/07/25 01:20:17;;;;;;;47.03;35.23;;;18.30;99.90;;;;;;6237303;23;20428;-92
2021/07/25 01:22:48;;;;;;;45.17;34.60;;;19.10;99.90;;;;;;6265793;23;20396;-93
2021/07/25 01:25:18;;;;;;;42.40;33.97;;;18.70;99.90;;;;;;6242580;23;20400;-93
2021/07/25 01:28:05;;;;;;;39.50;33.03;;;18.40;99.90;;;;;;6242332;23;20441;-93
2021/07/25 01:30:40;;;;;;;44.20;35.60;;;17.10;99.90;;;;;;6266760;23;20389;-93
2021/07/25 01:33:20;;;;;;;44.03;36.63;;;22.00;99.90;;;;;;6217154;23;20440;-93
2021/07/25 01:35:49;;;;;;;40.70;35.60;;;17.30;99.90;;;;;;6266220;23;20400;-93
2021/07/25 01:38:17;;;;;;;46.97;38.23;;;20.20;99.90;;;;;;6238947;23;20361;-94
2021/07/25 01:41:05;;;;;;;44.00;37.97;;;18.90;99.90;;;;;;6272366;23;20382;-93
2021/07/25 01:44:10;;;;;;;51.40;40.13;;;20.00;99.90;;;;;;6244445;23;20369;-93
2021/07/25 01:46:41;;;;;;;49.10;39.20;;;18.80;99.90;;;;;;6247558;22;20365;-92
2021/07/25 01:49:09;;;;;;;58.63;40.23;;;19.20;99.90;;;;;;6248804;23;20393;-90
2021/07/25 01:51:35;;;;;;;43.33;36.27;;;18.50;99.90;;;;;;6224094;23;20382;-93
2021/07/25 01:54:07;;;;;;;44.13;35.83;;;17.80;99.90;;;;;;6223842;23;20500;-93
2021/07/25 01:56:33;;;;;;;41.57;36.10;;;19.50;99.90;;;;;;6249862;22;20381;-92
2021/07/25 01:58:59;;;;;;;49.07;37.90;;;18.40;99.90;;;;;;6250346;22;20388;-93
2021/07/25 02:01:28;;;;;;;42.20;36.23;;;20.60;99.90;;;;;;6249465;22;20150;-93
2021/07/25 02:03:54;;;;;;;40.40;35.67;;;18.60;99.90;;;;;;6227453;22;20539;-93
2021/07/25 02:06:22;;;;;;;42.63;34.37;;;19.30;99.90;;;;;;6213526;23;20387;-92
2021/07/25 02:08:58;;;;;;;43.77;35.50;;;20.90;99.90;;;;;;6213835;23;20379;-93
2021/07/25 02:11:38;;;;;;;48.60;37.13;;;18.70;99.90;;;;;;6190346;23;20374;-93
2021/07/25 02:14:11;;;;;;;42.97;35.40;;;19.30;99.90;;;;;;6183077;23;20392;-92
2021/07/25 02:16:42;;;;;;;43.80;35.20;;;19.50;99.90;;;;;;6182549;23;20381;-92
2021/07/25 02:19:07;;;;;;;40.30;34.77;;;18.90;99.90;;;;;;6182449;23;20376;-93
2021/07/25 02:21:33;;;;;;;45.60;36.60;;;19.20;99.90;;;;;;6182732;23;20387;-93
2021/07/25 02:23:59;;;;;;;46.10;35.93;;;18.70;99.90;;;;;;6176269;23;20216;-92
2021/07/25 02:26:25;;;;;;;48.67;39.10;;;18.80;99.90;;;;;;6179317;23;20172;-92
2021/07/25 02:28:53;;;;;;;48.60;39.13;;;20.20;99.90;;;;;;6181053;23;20420;-92
2021/07/25 02:31:19;;;;;;;49.20;38.63;;;18.50;99.90;;;;;;6177015;23;20159;-92
2021/07/25 02:33:47;;;;;;;52.30;36.83;;;18.60;99.90;;;;;;6176818;23;20436;-92
2021/07/25 02:36:13;;;;;;;46.00;38.33;;;20.40;99.90;;;;;;6128454;23;20182;-93
2021/07/25 02:38:39;;;;;;;46.73;37.27;;;17.60;99.90;;;;;;6174125;23;20399;-93
2021/07/25 02:41:08;;;;;;;48.50;39.57;;;20.70;99.90;;;;;;6169620;23;20392;-94
2021/07/25 02:43:36;;;;;;;55.47;39.53;;;18.60;99.90;;;;;;6171090;23;20235;-93
2021/07/25 02:46:02;;;;;;;53.63;41.47;;;20.40;99.90;;;;;;6175768;23;20385;-91
2021/07/25 02:48:27;;;;;;;55.73;39.40;;;18.80;99.90;;;;;;6183842;23;20479;-92
2021/07/25 02:50:53;;;;;;;49.37;39.27;;;20.00;99.90;;;;;;6176647;23;20137;-92
2021/07/25 02:53:21;;;;;;;46.40;37.93;;;18.00;99.90;;;;;;6176844;23;20185;-92
2021/07/25 02:55:48;;;;;;;59.17;42.07;;;18.50;99.90;;;;;;6179474;23;20180;-90
2021/07/25 02:58:14;;;;;;;50.23;39.20;;;18.50;99.90;;;;;;6180626;23;20384;-90
2021/07/25 03:00:42;;;;;;;59.30;41.00;;;18.30;99.90;;;;;;6180000;23;20388;-91
2021/07/25 03:03:09;;;;;;;63.10;43.80;;;17.90;99.90;;;;;;6184291;23;20473;-91
2021/07/25 03:05:35;;;;;;;66.00;47.60;;;18.40;99.90;;;;;;6239047;23;20359;-90
2021/07/25 03:08:01;;;;;;;68.10;43.77;;;19.60;99.90;;;;;;6211987;23;20449;-91
2021/07/25 03:10:27;;;;;;;68.07;44.90;;;18.00;99.90;;;;;;6210514;23;20386;-94
2021/07/25 03:12:55;;;;;;;58.80;42.17;;;18.10;99.90;;;;;;6238634;23;20434;-91
2021/07/25 03:15:21;;;;;;;66.97;45.60;;;19.40;99.90;;;;;;6208590;23;20382;-93
2021/07/25 03:17:52;;;;;;;74.87;45.10;;;20.20;99.90;;;;;;6205333;23;20413;-93
2021/07/25 03:20:18;;;;;;;73.17;48.07;;;17.80;99.90;;;;;;6202671;23;20872;-92
2021/07/25 03:22:45;;;;;;;76.60;48.70;;;17.10;99.90;;;;;;6201906;23;20465;-93
2021/07/25 03:25:11;;;;;;;70.43;47.17;;;17.10;99.90;;;;;;6203627;23;20400;-94
2021/07/25 03:27:40;;;;;;;69.17;46.27;;;17.80;99.90;;;;;;6201229;23;20410;-92
2021/07/25 03:30:06;;;;;;;75.70;47.70;;;17.80;99.90;;;;;;6201550;23;20382;-92
2021/07/25 03:32:32;;;;;;;72.83;46.90;;;17.70;99.90;;;;;;6199989;23;20434;-93
2021/07/25 03:34:58;;;;;;;73.97;48.00;;;18.30;99.90;;;;;;6201653;23;20385;-94
2021/07/25 03:37:24;;;;;;;84.50;50.30;;;19.50;99.90;;;;;;6202045;23;20397;-94
2021/07/25 03:39:53;;;;;;;73.27;46.87;;;19.80;99.90;;;;;;6200499;23;20147;-92
2021/07/25 03:42:19;;;;;;;72.77;46.93;;;17.50;99.90;;;;;;6203564;23;20201;-93
2021/07/25 03:44:45;;;;;;;69.37;46.30;;;16.90;99.90;;;;;;6177837;23;20389;-94
2021/07/25 03:47:12;;;;;;;69.23;44.77;;;18.70;99.90;;;;;;6203852;23;20379;-93
2021/07/25 03:49:39;;;;;;;58.27;41.73;;;18.80;99.90;;;;;;6200943;23;20375;-93
2021/07/25 03:52:05;;;;;;;55.07;40.90;;;16.30;99.90;;;;;;6200140;23;20429;-94
2021/07/25 03:54:31;;;;;;;54.97;41.37;;;16.50;99.90;;;;;;6195062;23;20383;-93
2021/07/25 03:56:57;;;;;;;61.97;42.83;;;18.90;99.90;;;;;;6195649;23;20930;-93
2021/07/25 03:59:22;;;;;;;56.93;40.07;;;17.90;99.90;;;;;;6196488;23;20454;-92
2021/07/25 04:01:48;;;;;;;53.60;42.17;;;19.20;99.90;;;;;;6196417;23;20152;-93
2021/07/25 04:04:14;;;;;;;64.00;43.27;;;18.90;99.90;;;;;;6194163;23;20205;-94
2021/07/25 04:06:39;;;;;;;64.20;41.87;;;18.30;99.90;;;;;;6195739;23;20175;-93
2021/07/25 04:09:05;;;;;;;60.50;40.93;;;17.60;99.90;;;;;;6195295;23;20155;-92
2021/07/25 04:11:33;;;;;;;59.07;41.77;;;19.80;99.90;;;;;;6197916;23;20151;-93
2021/07/25 04:13:59;;;;;;;55.17;41.97;;;18.60;99.90;;;;;;6199161;23;20235;-94
2021/07/25 04:16:25;;;;;;;50.60;38.53;;;18.80;99.90;;;;;;6198047;23;20409;-94
2021/07/25 04:18:51;;;;;;;58.47;39.93;;;17.70;99.90;;;;;;6196341;23;20576;-94
2021/07/25 04:21:16;;;;;;;59.70;40.00;;;19.10;99.90;;;;;;6197690;23;20190;-93
2021/07/25 04:23:42;;;;;;;54.73;41.07;;;18.40;99.90;;;;;;6222022;23;20151;-93
2021/07/25 04:26:08;;;;;;;58.13;39.33;;;19.60;99.90;;;;;;6194762;23;20147;-92
2021/07/25 04:28:35;;;;;;;54.63;38.57;;;18.00;99.90;;;;;;6198104;23;20387;-93
2021/07/25 04:31:01;;;;;;;49.93;36.13;;;18.30;99.90;;;;;;6195860;23;20398;-93
2021/07/25 04:33:27;;;;;;;46.17;35.07;;;17.60;99.90;;;;;;6197679;23;20521;-94
2021/07/25 04:35:56;;;;;;;41.00;33.57;;;17.60;99.90;;;;;;6200404;23;20379;-94
2021/07/25 04:38:22;;;;;;;45.27;36.90;;;17.60;99.90;;;;;;6199834;23;20401;-93
2021/07/25 04:41:00;;;;;;;42.63;34.20;;;17.40;99.90;;;;;;6196646;23;20438;-92
2021/07/25 04:43:29;;;;;;;39.93;31.93;;;19.60;99.90;;;;;;6201374;23;20378;-94
2021/07/25 04:46:09;;;;;;;41.20;33.10;;;17.50;99.90;;;;;;6196779;23;20401;-94
2021/07/25 04:48:47;;;;;;;33.50;29.43;;;18.70;99.90;;;;;;6199466;23;20382;-89
2021/07/25 04:51:21;;;;;;;35.60;29.03;;;17.40;99.90;;;;;;6228697;23;20355;-93
2021/07/25 04:53:59;;;;;;;28.10;25.10;;;18.40;99.90;;;;;;6233073;23;20485;-94
2021/07/25 04:56:26;;;;;;;29.83;24.40;;;18.60;99.90;;;;;;6206511;23;20457;-93
2021/07/25 04:59:02;;;;;;;28.40;25.27;;;21.00;99.90;;;;;;6175651;23;20422;-94
2021/07/25 05:01:31;;;;;;;29.47;24.77;;;18.70;99.90;;;;;;6197728;23;20386;-94
2021/07/25 05:04:02;;;;;;;26.43;23.63;;;18.10;99.90;;;;;;6185944;23;20428;-94
2021/07/25 05:06:31;;;;;;;24.50;22.10;;;19.30;99.90;;;;;;6169501;23;20468;-93
2021/07/25 05:09:05;;;;;;;23.00;20.50;;;20.60;99.90;;;;;;6167202;23;20387;-93
2021/07/25 05:11:58;;;;;;;23.13;20.90;;;18.20;99.90;;;;;;6172171;23;20379;-93
2021/07/25 05:14:51;;;;;;;18.80;17.00;;;20.00;99.20;;;;;;6174519;23;20403;-93
2021/07/25 05:17:55;;;;;;;19.70;17.83;;;20.20;97.70;;;;;;6175654;23;20411;-94
2021/07/25 05:24:00;;;;;;;15.50;14.00;;;20.80;93.90;;;;;;6183549;23;20368;-94
2021/07/25 05:26:50;;;;;;;;;;;;;;;;;;;;;
2021/07/25 05:48:25;;;;;;;12.47;11.57;;;23.20;73.00;;;;;;6179483;23;20443;-92
2021/07/25 05:51:06;;;;;;;;;;;;;;;;;;;;;
2021/07/25 05:54:08;;;;;;;10.67;9.67;;;29.10;81.60;;;;;;6182450;23;20391;-94
2021/07/25 05:56:36;;;;;;;9.80;9.20;;;29.00;78.00;;;;;;6183623;23;20371;-94
2021/07/25 05:59:29;;;;;;;10.20;9.20;;;27.60;79.40;;;;;;6183654;23;20400;-93
2021/07/25 06:07:11;;;;;;;11.63;9.30;;;23.20;65.60;;;;;;6193672;22;20433;-94
2021/07/25 06:09:45;;;;;;;9.17;8.47;;;23.70;69.60;;;;;;6244715;22;20371;-94
2021/07/25 06:12:25;;;;;;;11.57;8.40;;;24.60;67.40;;;;;;6204569;23;20513;-94
2021/07/25 06:14:51;;;;;;;8.87;7.77;;;25.60;65.50;;;;;;6213871;23;20399;-91
2021/07/25 06:17:44;;;;;;;;;;;;;;;;;;;;;
2021/07/25 06:20:17;;;;;;;8.10;7.50;;;24.20;59.80;;;;;;6156612;23;20140;-93
2021/07/25 06:23:00;;;;;;;7.60;7.03;;;24.20;65.90;;;;;;6188230;23;20415;-95
2021/07/25 06:25:50;;;;;;;6.87;6.37;;;26.40;61.90;;;;;;6212873;23;20376;-93
2021/07/25 06:28:28;;;;;;;7.47;6.50;;;24.20;60.80;;;;;;6208306;23;20395;-92
2021/07/25 06:31:36;;;;;;;7.53;7.03;;;27.40;65.30;;;;;;6207914;23;20378;-94
2021/07/25 06:38:01;;;;;;;7.37;6.77;;;;;;;;;;6203984;23;20351;-93
2021/07/25 06:40:33;;;;;;;6.90;6.50;;;25.00;57.90;;;;;;6212228;23;20378;-93
2021/07/25 06:43:22;;;;;;;7.20;6.70;;;27.50;58.90;;;;;;6183056;23;20438;-91
2021/07/25 06:46:03;;;;;;;;;;;;;;;;;;;;;
2021/07/25 06:48:38;;;;;;;6.80;6.40;;;25.80;56.00;;;;;;6209894;23;20364;-93
2021/07/25 06:51:08;;;;;;;6.57;5.87;;;26.40;56.80;;;;;;6204734;23;20374;-94
2021/07/25 06:53:43;;;;;;;6.63;6.00;;;26.20;56.30;;;;;;6205414;23;20454;-95
2021/07/25 06:56:15;;;;;;;6.40;6.00;;;25.40;57.80;;;;;;6202079;23;20399;-93
2021/07/25 06:58:48;;;;;;;6.20;5.80;;;28.00;54.50;;;;;;6179701;23;20478;-93
2021/07/25 07:01:16;;;;;;;5.87;5.50;;;30.00;56.60;;;;;;6177744;23;20395;-95
2021/07/25 07:03:43;;;;;;;5.60;5.30;;;;;;;;;;6197504;23;20446;-94
2021/07/25 07:06:09;;;;;;;5.47;5.07;;;27.00;53.40;;;;;;6228935;23;20383;-93
2021/07/25 07:08:37;;;;;;;6.30;6.00;;;28.60;55.30;;;;;;6201802;23;20399;-94
2021/07/25 07:11:05;;;;;;;5.97;5.67;;;29.70;53.00;;;;;;6205684;23;20471;-94
2021/07/25 07:13:31;;;;;;;5.90;5.50;;;27.70;52.30;;;;;;6180217;23;20443;-94
2021/07/25 07:15:57;;;;;;;5.00;4.87;;;29.00;54.50;;;;;;6203147;23;20414;-95
2021/07/25 07:18:33;;;;;;;5.10;4.80;;;27.00;51.70;;;;;;6205928;23;20371;-93
2021/07/25 07:21:14;;;;;;;5.30;4.90;;;28.70;51.30;;;;;;6202032;23;20398;-94
2021/07/25 07:23:46;;;;;;;5.17;4.80;;;28.90;49.80;;;;;;6206144;23;20438;-93
2021/07/25 07:26:27;;;;;;;;;;;;;;;;;;;;;
2021/07/25 07:28:53;;;;;;;5.50;5.00;;;28.60;51.30;;;;;;6191150;23;20422;-92
2021/07/25 07:31:19;;;;;;;5.10;4.80;;;27.80;51.00;;;;;;6191654;23;20854;-91
2021/07/25 07:33:44;;;;;;;4.33;4.23;;;29.40;50.40;;;;;;6190118;23;20159;-90
2021/07/25 07:36:10;;;;;;;4.80;4.60;;;28.70;51.90;;;;;;6189555;23;20576;-93
2021/07/25 07:38:38;;;;;;;4.30;4.20;;;28.80;49.60;;;;;;6190708;23;20496;-92
2021/07/25 07:41:04;;;;;;;5.27;4.87;;;28.60;47.60;;;;;;6192237;23;20164;-92
2021/07/25 07:43:30;;;;;;;5.60;5.30;;;;;;;;;;6193225;23;20731;-93
2021/07/25 07:45:56;;;;;;;5.20;4.90;;;28.80;48.50;;;;;;6216304;23;20227;-92
2021/07/25 07:48:23;;;;;;;4.63;4.33;;;29.30;49.60;;;;;;6193264;23;20832;-93
2021/07/25 07:50:52;;;;;;;4.67;4.47;;;30.20;49.60;;;;;;6197881;23;20154;-92
2021/07/25 07:53:20;;;;;;;4.03;3.83;;;31.30;47.60;;;;;;6194655;23;20391;-92
2021/07/25 07:55:48;;;;;;;5.80;5.20;;;29.80;47.50;;;;;;6192238;23;20380;-92
2021/07/25 07:58:13;;;;;;;5.37;5.00;;;29.40;46.50;;;;;;6190254;23;20379;-90
2021/07/25 08:00:39;;;;;;;4.20;4.10;;;30.10;47.30;;;;;;6195549;23;20457;-90
2021/07/25 08:03:06;;;;;;;4.50;4.30;;;29.50;49.20;;;;;;6193826;23;20241;-91
2021/07/25 08:05:31;;;;;;;4.47;4.23;;;29.30;49.10;;;;;;6193723;23;20480;-91
2021/07/25 08:08:01;;;;;;;5.20;4.90;;;28.10;46.70;;;;;;6191421;23;20394;-92
2021/07/25 08:10:29;;;;;;;4.80;4.40;;;28.50;47.90;;;;;;6165108;23;20156;-92
2021/07/25 08:12:55;;;;;;;5.10;4.90;;;29.70;50.70;;;;;;6164207;23;20821;-92
2021/07/25 08:15:20;;;;;;;5.33;5.07;;;29.00;49.20;;;;;;6186083;23;20386;-92
2021/07/25 08:17:46;;;;;;;4.70;4.40;;;29.10;48.30;;;;;;6188638;23;20454;-91
2021/07/25 08:20:14;;;;;;;4.47;4.27;;;29.70;50.30;;;;;;6188501;23;20155;-91
2021/07/25 08:22:40;;;;;;;4.67;4.47;;;31.40;47.50;;;;;;6188554;23;20186;-94
2021/07/25 08:25:06;;;;;;;4.70;4.30;;;;;;;;;;6190745;23;20380;-91
2021/07/25 08:27:32;;;;;;;5.60;4.20;;;31.10;44.90;;;;;;6187520;23;20160;-91
2021/07/25 08:29:58;;;;;;;4.43;4.10;;;32.40;47.20;;;;;;6186627;23;20390;-93
2021/07/25 08:32:26;;;;;;;4.10;3.90;;;32.70;46.20;;;;;;6184886;23;20148;-92
2021/07/25 08:34:52;;;;;;;5.00;4.70;;;32.50;41.40;;;;;;6186959;23;20160;-92
2021/07/25 08:37:18;;;;;;;4.37;4.27;;;32.40;42.40;;;;;;6188134;23;20851;-89
2021/07/25 08:39:45;;;;;;;4.53;4.43;;;32.80;43.30;;;;;;6185836;23;20231;-91
2021/07/25 08:42:13;;;;;;;4.13;3.93;;;33.40;42.30;;;;;;6186959;23;20246;-92
2021/07/25 08:44:50;;;;;;;3.60;3.40;;;33.30;41.20;;;;;;6184556;23;20434;-91
2021/07/25 08:47:28;;;;;;;4.40;4.20;;;33.50;39.70;;;;;;6185571;23;20414;-90
2021/07/25 08:50:00;;;;;;;4.33;4.23;;;32.90;40.40;;;;;;6186881;23;20352;-89
2021/07/25 08:52:31;;;;;;;3.70;3.40;;;;;;;;;;6186618;23;20776;-91
2021/07/25 08:54:58;;;;;;;4.20;4.13;;;32.40;40.50;;;;;;6211390;23;20388;-91
2021/07/25 08:57:30;;;;;;;5.13;4.80;;;31.30;42.20;;;;;;6194229;23;20392;-91
2021/07/25 08:59:58;;;;;;;4.40;4.20;;;32.10;42.70;;;;;;6189841;23;20470;-91
2021/07/25 09:02:29;;;;;;;3.90;3.80;;;32.80;41.50;;;;;;6191787;23;20410;-90
2021/07/25 09:04:59;;;;;;;4.53;4.13;;;33.00;41.40;;;;;;6223658;23;20399;-90
2021/07/25 09:07:28;;;;;;;4.60;4.37;;;33.40;44.20;;;;;;6226100;23;20471;-91
2021/07/25 09:10:06;;;;;;;4.33;3.90;;;34.20;39.10;;;;;;6194988;23;20712;-89
2021/07/25 09:12:33;;;;;;;4.03;3.97;;;34.50;42.80;;;;;;6192629;23;20442;-93
2021/07/25 09:15:11;;;;;;;4.50;4.10;;;34.10;37.40;;;;;;6193674;23;20474;-93
2021/07/25 09:18:16;;;;;;;4.10;4.00;;;34.10;38.50;;;;;;6195557;22;21474;-92
2021/07/25 09:20:55;;;;;;;4.43;4.23;;;34.40;38.80;;;;;;6198427;23;20446;-93
2021/07/25 09:23:36;;;;;;;4.87;4.67;;;33.90;38.50;;;;;;6173869;23;20427;-95
2021/07/25 09:26:04;;;;;;;4.27;4.17;;;34.80;38.10;;;;;;6177278;23;20398;-91
2021/07/25 09:28:36;;;;;;;4.17;4.07;;;38.80;42.30;;;;;;6178314;23;20391;-89
2021/07/25 09:31:15;;;;;;;4.60;4.40;;;34.70;37.30;;;;;;6186019;23;20866;-92
2021/07/25 09:33:47;;;;;;;4.03;3.93;;;34.70;38.00;;;;;;6157042;23;20394;-91
2021/07/25 09:36:20;;;;;;;4.27;3.97;;;35.00;37.90;;;;;;6184471;23;20375;-89
2021/07/25 09:38:48;;;;;;;5.10;4.80;;;35.10;37.60;;;;;;6184924;23;20426;-91
2021/07/25 09:41:22;;;;;;;4.10;3.80;;;35.10;37.10;;;;;;6185473;23;21049;-91
2021/07/25 09:43:58;;;;;;;4.27;4.17;;;35.20;35.30;;;;;;6158430;23;20438;-91
2021/07/25 09:46:26;;;;;;;3.90;3.80;;;34.90;36.60;;;;;;6184563;23;20379;-91
2021/07/25 09:48:57;;;;;;;4.30;4.10;;;34.80;37.00;;;;;;6186177;23;20874;-92
2021/07/25 09:51:26;;;;;;;4.67;4.20;;;34.90;36.40;;;;;;6135640;23;20973;-90
2021/07/25 09:53:54;;;;;;;5.30;4.17;;;34.90;36.80;;;;;;6157994;23;20388;-90
2021/07/25 09:56:27;;;;;;;4.50;4.20;;;35.00;36.60;;;;;;6186972;23;20364;-93
2021/07/25 09:58:55;;;;;;;3.90;3.80;;;33.70;37.70;;;;;;6186138;23;20349;-90
2021/07/25 10:01:41;;;;;;;4.17;3.97;;;35.80;35.60;;;;;;6162805;23;20144;-90
2021/07/25 10:04:14;;;;;;;4.20;4.00;;;36.20;38.50;;;;;;6164047;23;20477;-92
2021/07/25 10:06:44;;;;;;;4.90;4.60;;;36.40;35.70;;;;;;6165564;23;20391;-91
2021/07/25 10:09:14;;;;;;;4.00;3.93;;;35.90;34.60;;;;;;6140887;23;20388;-92
2021/07/25 10:11:48;;;;;;;3.50;3.40;;;35.80;35.00;;;;;;6162468;23;20878;-92
2021/07/25 10:14:17;;;;;;;4.20;4.00;;;36.00;35.10;;;;;;6162804;23;20385;-90
2021/07/25 10:16:44;;;;;;;4.27;4.07;;;36.00;35.00;;;;;;6169314;23;20411;-93
2021/07/25 10:19:14;;;;;;;3.70;3.60;;;35.80;34.60;;;;;;6143674;23;20477;-93
2021/07/25 10:21:41;;;;;;;5.50;5.20;;;35.40;34.90;;;;;;6169092;23;20409;-91
2021/07/25 10:24:13;;;;;;;5.27;4.87;;;33.60;36.10;;;;;;6171334;23;20431;-88
2021/07/25 10:26:40;;;;;;;4.77;4.20;;;35.60;37.20;;;;;;6172433;23;20853;-88
2021/07/25 10:29:08;;;;;;;3.90;3.60;;;36.40;34.10;;;;;;6170563;23;20395;-91
2021/07/25 10:31:36;;;;;;;5.23;4.63;;;32.90;38.20;;;;;;6167592;23;20406;-89
2021/07/25 10:34:03;;;;;;;3.90;3.80;;;36.50;33.70;;;;;;6196571;23;20477;-89
2021/07/25 10:36:31;;;;;;;4.37;4.10;;;35.70;33.20;;;;;;6161088;23;20466;-90
2021/07/25 10:39:05;;;;;;;5.23;4.93;;;36.40;33.90;;;;;;6160963;23;20418;-89
2021/07/25 10:41:31;;;;;;;4.60;4.40;;;36.40;34.10;;;;;;6187987;23;20380;-90
2021/07/25 10:44:01;;;;;;;4.23;4.03;;;36.20;34.10;;;;;;6160853;23;20929;-89
2021/07/25 10:46:29;;;;;;;5.10;4.90;;;36.40;33.50;;;;;;6163341;23;20462;-91
2021/07/25 10:49:04;;;;;;;4.60;4.40;;;36.00;35.20;;;;;;6191121;23;20409;-92
2021/07/25 10:51:58;;;;;;;4.90;4.70;;;36.50;33.80;;;;;;6180093;23;20402;-92
2021/07/25 10:54:34;;;;;;;4.13;4.03;;;36.80;33.60;;;;;;6173971;23;20395;-92
2021/07/25 11:00:25;;;;;;;5.10;4.73;;;37.20;33.80;;;;;;6204372;23;20417;-92
2021/07/25 11:02:52;;;;;;;4.70;4.40;;;36.70;34.10;;;;;;6176112;23;20427;-92
2021/07/25 11:05:56;;;;;;;7.70;4.57;;;37.30;32.80;;;;;;6203343;23;20447;-92
2021/07/25 11:08:33;;;;;;;4.80;4.60;;;;;;;;;;6206905;23;20334;-90
2021/07/25 11:11:04;;;;;;;4.47;3.90;;;;;;;;;;6180987;23;20885;-92
2021/07/25 11:13:45;;;;;;;3.70;3.60;;;;;;;;;;6205807;23;20400;-92
2021/07/25 11:16:30;;;;;;;3.60;3.60;;;38.70;35.10;;;;;;6202241;23;20352;-92
2021/07/25 11:19:50;;;;;;;4.37;3.97;;;38.10;33.00;;;;;;6204056;23;20354;-89
2021/07/25 11:22:45;;;;;;;4.30;4.10;;;38.80;32.60;;;;;;6161607;23;20451;-93
2021/07/25 11:25:32;;;;;;;3.80;3.70;;;37.90;32.00;;;;;;6174052;23;20384;-91
2021/07/25 11:28:04;;;;;;;8.93;8.03;;;38.10;31.20;;;;;;6147879;23;20383;-91
2021/07/25 11:30:55;;;;;;;3.80;3.70;;;37.00;31.70;;;;;;6177622;23;20398;-92
2021/07/25 11:33:53;;;;;;;4.07;3.97;;;36.60;34.00;;;;;;6202670;23;20352;-94
2021/07/25 11:36:21;;;;;;;3.90;3.80;;;35.80;34.10;;;;;;6156843;23;20379;-90
2021/07/25 11:38:55;;;;;;;4.37;4.07;;;34.80;34.90;;;;;;6176457;23;20383;-90
2021/07/25 11:41:33;;;;;;;4.10;3.73;;;31.30;35.10;;;;;;6177806;23;20391;-89
2021/07/25 11:44:05;;;;;;;4.10;3.87;;;32.20;36.70;;;;;;6203907;23;20451;-91
2021/07/25 11:46:36;;;;;;;6.00;4.17;;;30.20;36.70;;;;;;6171221;23;20371;-90
2021/07/25 11:49:16;;;;;;;4.20;4.00;;;31.50;39.60;;;;;;6175773;23;20403;-92
2021/07/25 11:51:58;;;;;;;4.20;3.97;;;30.70;39.00;;;;;;6178905;23;20420;-89
2021/07/25 11:55:04;;;;;;;4.67;4.57;;;31.70;40.60;;;;;;6202046;23;20383;-92
2021/07/25 11:57:30;;;;;;;4.73;4.53;;;30.40;40.00;;;;;;6168913;23;20387;-92
2021/07/25 11:59:59;;;;;;;3.87;3.57;;;31.00;40.90;;;;;;6195552;23;20455;-88
2021/07/25 12:02:30;;;;;;;4.30;4.00;;;33.00;40.10;;;;;;6195152;23;20171;-92
2021/07/25 12:04:58;;;;;;;4.30;4.10;;;32.90;38.60;;;;;;6170258;23;20852;-93
2021/07/25 12:07:32;;;;;;;4.20;4.00;;;32.70;38.00;;;;;;6165700;23;20410;-92
2021/07/25 12:09:57;;;;;;;41.93;33.87;;;33.80;39.30;;;;;;6190831;23;20871;-89
2021/07/25 12:12:30;;;;;;;7.00;6.50;;;31.20;39.50;;;;;;6166244;23;20392;-91
2021/07/25 12:15:00;;;;;;;4.70;4.40;;;31.70;41.30;;;;;;6191680;23;20128;-89
2021/07/25 12:17:52;;;;;;;4.70;4.50;;;30.50;40.30;;;;;;6193369;23;20375;-89
2021/07/25 12:20:19;;;;;;;5.13;4.93;;;30.10;41.80;;;;;;6165162;23;20435;-91
2021/07/25 12:22:56;;;;;;;5.20;4.67;;;29.60;42.60;;;;;;6192704;23;20453;-89
2021/07/25 12:25:31;;;;;;;4.63;4.43;;;29.30;41.70;;;;;;6165224;23;20393;-88
2021/07/25 12:28:14;;;;;;;3.97;3.77;;;29.30;42.10;;;;;;6181991;23;20398;-90
2021/07/25 12:30:47;;;;;;;4.90;4.60;;;28.80;41.90;;;;;;6184180;23;20411;-90
2021/07/25 12:33:15;;;;;;;3.90;3.70;;;28.90;41.70;;;;;;6171515;23;20410;-91
2021/07/25 12:35:41;;;;;;;3.67;3.57;;;29.20;42.10;;;;;;6167640;23;20387;-91
2021/07/25 12:38:11;;;;;;;2.73;2.63;;;31.70;42.40;;;;;;6165604;23;20383;-89
2021/07/25 12:41:00;;;;;;;2.70;2.60;;;33.90;38.40;;;;;;6191818;23;20701;-91
2021/07/25 12:43:29;;;;;;;2.50;2.50;;;32.20;36.90;;;;;;6191875;23;20922;-92
2021/07/25 12:45:56;;;;;;;2.20;2.20;;;32.60;35.00;;;;;;6191098;23;20376;-92
2021/07/25 12:48:26;;;;;;;2.53;2.53;;;32.80;34.40;;;;;;6164708;23;20474;-90
2021/07/25 12:53:44;;;;;;;2.57;2.33;;;34.20;34.10;;;;;;6200016;23;20364;-89
2021/07/25 12:56:17;;;;;;;2.10;2.10;;;34.00;34.40;;;;;;6162628;23;20391;-90
2021/07/25 12:58:51;;;;;;;2.20;2.10;;;34.30;34.00;;;;;;6164041;23;20383;-92
2021/07/25 13:03:57;;;;;;;2.27;2.27;;;35.10;33.50;;;;;;6200621;23;20437;-87
2021/07/25 13:06:46;;;;;;;2.43;2.33;;;36.00;31.90;;;;;;6162737;23;20391;-90
2021/07/25 13:09:12;;;;;;;2.37;2.37;;;36.60;32.30;;;;;;6189101;23;20379;-90
2021/07/25 13:11:46;;;;;;;3.07;3.00;;;36.80;33.60;;;;;;6189309;23;20438;-91
2021/07/25 13:14:27;;;;;;;2.43;2.30;;;36.80;31.90;;;;;;6167343;23;20407;-91
2021/07/25 13:16:56;;;;;;;2.50;2.30;;;36.90;31.20;;;;;;6168206;23;20751;-90
2021/07/25 13:19:24;;;;;;;3.20;2.80;;;36.30;32.40;;;;;;6195514;23;20506;-90
2021/07/25 13:21:52;;;;;;;4.20;2.37;;;37.00;31.40;;;;;;6171609;23;20403;-91
2021/07/25 13:24:28;;;;;;;4.03;3.03;;;37.10;30.40;;;;;;6174314;23;20449;-91
2021/07/25 13:26:54;;;;;;;2.33;2.23;;;37.60;32.10;;;;;;6166606;23;20456;-91
2021/07/25 13:29:20;;;;;;;2.43;2.30;;;38.00;31.90;;;;;;6172086;23;20384;-91
2021/07/25 13:31:45;;;;;;;2.30;2.30;;;38.00;31.70;;;;;;6172473;23;20380;-91
2021/07/25 13:34:11;;;;;;;2.60;2.60;;;38.30;31.70;;;;;;6170752;23;20164;-91
2021/07/25 13:36:37;;;;;;;2.60;2.60;;;37.50;30.80;;;;;;6170378;23;20288;-90
2021/07/25 13:39:03;;;;;;;2.67;2.47;;;38.00;31.40;;;;;;6169045;23;20529;-93
2021/07/25 13:41:31;;;;;;;3.67;3.47;;;37.80;31.50;;;;;;6168715;23;20198;-89
2021/07/25 13:44:01;;;;;;;2.80;2.70;;;39.20;29.30;;;;;;6167912;23;20427;-90
2021/07/25 13:46:40;;;;;;;2.77;2.57;;;39.30;30.10;;;;;;6197150;23;20386;-91
2021/07/25 13:49:10;;;;;;;3.70;3.37;;;39.00;29.70;;;;;;6167625;23;20415;-91
2021/07/25 13:51:35;;;;;;;2.60;2.50;;;39.10;29.80;;;;;;6170220;23;20379;-91
2021/07/25 13:54:04;;;;;;;3.40;3.10;;;38.80;30.00;;;;;;6174139;23;20385;-91
2021/07/25 13:56:32;;;;;;;2.50;2.40;;;38.50;29.80;;;;;;6197494;23;20144;-89
2021/07/25 13:58:57;;;;;;;3.37;3.10;;;38.30;30.60;;;;;;6196159;23;20454;-91
2021/07/25 14:01:26;;;;;;;2.60;2.50;;;38.30;31.80;;;;;;6170924;23;20417;-90
2021/07/25 14:03:52;;;;;;;3.03;2.93;;;38.20;31.00;;;;;;6193386;23;20179;-90